SHT2J EGLL-EGCC
Flight info
| Callsign | SHT2J |
|---|---|
| Flight time | 0h 27m |
| Altitude | 18000 |
| Route | ULTIB1J ULTIB T420 ELVOS ELVOS1M |
| Aircraft | A320/M-SDE3FGHIJ1RWXY/S |
Departure
| Time | 2026-05-04 12:34 |
|---|---|
| Airport | London Heathrow Airport (EGLL) |
Arrival
| Time | 2026-05-04 13:02 |
|---|---|
| Airport | Manchester Airport (EGCC) |
| Time | Latitude | Longitude | Altitude | Speed | Heading |
|---|---|---|---|---|---|
| 2026-05-04 12:15 | 51.47399 | -0.48590 | 87 ft | 0 kts | 270° |
| 2026-05-04 12:24 | 51.47399 | -0.48582 | 92 ft | 4 kts | 269° |
| 2026-05-04 12:25 | 51.47399 | -0.48539 | 90 ft | 4 kts | 267° |
| 2026-05-04 12:25 | 51.47401 | -0.48502 | 91 ft | 2 kts | 249° |
| 2026-05-04 12:25 | 51.47406 | -0.48485 | 90 ft | 2 kts | 210° |
| 2026-05-04 12:25 | 51.47422 | -0.48477 | 91 ft | 3 kts | 182° |
| 2026-05-04 12:26 | 51.47436 | -0.48477 | 92 ft | 3 kts | 180° |
| 2026-05-04 12:26 | 51.47415 | -0.48477 | 92 ft | 2 kts | 180° |
| 2026-05-04 12:26 | 51.47405 | -0.48477 | 90 ft | 1 kts | 180° |
| 2026-05-04 12:26 | 51.47402 | -0.48477 | 90 ft | 0 kts | 180° |
| 2026-05-04 12:28 | 51.47398 | -0.48477 | 89 ft | 2 kts | 180° |
| 2026-05-04 12:28 | 51.47361 | -0.48478 | 87 ft | 8 kts | 181° |
| 2026-05-04 12:28 | 51.47298 | -0.48476 | 87 ft | 10 kts | 180° |
| 2026-05-04 12:28 | 51.47221 | -0.48476 | 87 ft | 12 kts | 179° |
| 2026-05-04 12:29 | 51.47128 | -0.48475 | 87 ft | 14 kts | 179° |
| 2026-05-04 12:29 | 51.47020 | -0.48474 | 87 ft | 17 kts | 179° |
| 2026-05-04 12:29 | 51.46896 | -0.48473 | 87 ft | 19 kts | 180° |
| 2026-05-04 12:29 | 51.46770 | -0.48472 | 88 ft | 14 kts | 179° |
| 2026-05-04 12:30 | 51.46671 | -0.48471 | 87 ft | 10 kts | 177° |
| 2026-05-04 12:30 | 51.46651 | -0.48387 | 87 ft | 10 kts | 90° |
| 2026-05-04 12:30 | 51.46652 | -0.48260 | 87 ft | 13 kts | 90° |
| 2026-05-04 12:30 | 51.46652 | -0.48098 | 87 ft | 16 kts | 90° |
| 2026-05-04 12:31 | 51.46652 | -0.47902 | 87 ft | 19 kts | 89° |
| 2026-05-04 12:31 | 51.46655 | -0.47679 | 87 ft | 21 kts | 88° |
| 2026-05-04 12:31 | 51.46657 | -0.47438 | 88 ft | 22 kts | 90° |
| 2026-05-04 12:31 | 51.46657 | -0.47181 | 88 ft | 24 kts | 90° |
| 2026-05-04 12:32 | 51.46658 | -0.46904 | 87 ft | 26 kts | 89° |
| 2026-05-04 12:32 | 51.46659 | -0.46298 | 91 ft | 29 kts | 89° |
| 2026-05-04 12:32 | 51.46662 | -0.46000 | 87 ft | 21 kts | 85° |
| 2026-05-04 12:33 | 51.46657 | -0.45817 | 88 ft | 13 kts | 84° |
| 2026-05-04 12:33 | 51.46658 | -0.45682 | 88 ft | 7 kts | 111° |
| 2026-05-04 12:33 | 51.46611 | -0.45655 | 88 ft | 9 kts | 185° |
| 2026-05-04 12:33 | 51.46530 | -0.45690 | 85 ft | 14 kts | 195° |
| 2026-05-04 12:34 | 51.46487 | -0.45806 | 87 ft | 12 kts | 271° |
| 2026-05-04 12:34 | 51.46487 | -0.46155 | 91 ft | 70 kts | 270° |
| 2026-05-04 12:34 | 51.46483 | -0.47365 | 91 ft | 145 kts | 270° |
| 2026-05-04 12:34 | 51.46471 | -0.49069 | 705 ft | 153 kts | 270° |
| 2026-05-04 12:35 | 51.46546 | -0.50786 | 1460 ft | 158 kts | 285° |
| 2026-05-04 12:35 | 51.47035 | -0.52510 | 1659 ft | 183 kts | 301° |
| 2026-05-04 12:35 | 51.47672 | -0.54434 | 1950 ft | 208 kts | 299° |
| 2026-05-04 12:35 | 51.48378 | -0.56620 | 2370 ft | 233 kts | 298° |
| 2026-05-04 12:36 | 51.49157 | -0.59058 | 2901 ft | 255 kts | 298° |
| 2026-05-04 12:36 | 51.49977 | -0.61636 | 3724 ft | 262 kts | 297° |
| 2026-05-04 12:36 | 51.50814 | -0.64270 | 4700 ft | 266 kts | 297° |
| 2026-05-04 12:36 | 51.51752 | -0.66806 | 5629 ft | 271 kts | 311° |
| 2026-05-04 12:37 | 51.53356 | -0.68401 | 6526 ft | 279 kts | 345° |
| 2026-05-04 12:37 | 51.55308 | -0.68628 | 7412 ft | 283 kts | 359° |
| 2026-05-04 12:37 | 51.57287 | -0.68641 | 8289 ft | 286 kts | 358° |
| 2026-05-04 12:37 | 51.59288 | -0.68703 | 9148 ft | 290 kts | 357° |
| 2026-05-04 12:38 | 51.61317 | -0.68825 | 9986 ft | 294 kts | 355° |
| 2026-05-04 12:38 | 51.63416 | -0.69004 | 10420 ft | 313 kts | 355° |
| 2026-05-04 12:38 | 51.65669 | -0.69232 | 10654 ft | 335 kts | 355° |
| 2026-05-04 12:38 | 51.68039 | -0.69492 | 11149 ft | 346 kts | 354° |
| 2026-05-04 12:39 | 51.70453 | -0.69769 | 11821 ft | 350 kts | 354° |
| 2026-05-04 12:39 | 51.72904 | -0.70052 | 12519 ft | 354 kts | 354° |
| 2026-05-04 12:39 | 51.75349 | -0.70333 | 13217 ft | 358 kts | 355° |
| 2026-05-04 12:39 | 51.77850 | -0.70618 | 13899 ft | 363 kts | 355° |
| 2026-05-04 12:40 | 51.80386 | -0.70902 | 14526 ft | 367 kts | 355° |
| 2026-05-04 12:40 | 51.82949 | -0.71190 | 15157 ft | 370 kts | 355° |
| 2026-05-04 12:40 | 51.85539 | -0.71482 | 15761 ft | 374 kts | 355° |
| 2026-05-04 12:40 | 51.88146 | -0.71776 | 16363 ft | 377 kts | 355° |
| 2026-05-04 12:41 | 51.90783 | -0.72071 | 16965 ft | 381 kts | 355° |
| 2026-05-04 12:41 | 51.93445 | -0.72367 | 17565 ft | 384 kts | 355° |
| 2026-05-04 12:41 | 51.96125 | -0.72666 | 17968 ft | 387 kts | 355° |
| 2026-05-04 12:41 | 51.98775 | -0.73523 | 18053 ft | 395 kts | 339° |
| 2026-05-04 12:42 | 52.01270 | -0.75356 | 18058 ft | 401 kts | 333° |
| 2026-05-04 12:42 | 52.03790 | -0.77341 | 18053 ft | 403 kts | 333° |
| 2026-05-04 12:42 | 52.06306 | -0.79346 | 18057 ft | 403 kts | 333° |
| 2026-05-04 12:42 | 52.08826 | -0.81363 | 18057 ft | 403 kts | 333° |
| 2026-05-04 12:43 | 52.11343 | -0.83376 | 18058 ft | 403 kts | 333° |
| 2026-05-04 12:43 | 52.13863 | -0.85384 | 18057 ft | 403 kts | 333° |
| 2026-05-04 12:43 | 52.16383 | -0.87388 | 18054 ft | 403 kts | 333° |
| 2026-05-04 12:43 | 52.18899 | -0.89386 | 18058 ft | 402 kts | 333° |
| 2026-05-04 12:44 | 52.21413 | -0.91383 | 18059 ft | 402 kts | 333° |
| 2026-05-04 12:44 | 52.23898 | -0.93365 | 18061 ft | 402 kts | 333° |
| 2026-05-04 12:44 | 52.26412 | -0.95377 | 18075 ft | 404 kts | 333° |
| 2026-05-04 12:44 | 52.29000 | -0.97457 | 18074 ft | 423 kts | 333° |
| 2026-05-04 12:45 | 52.31689 | -0.99622 | 18075 ft | 437 kts | 333° |
| 2026-05-04 12:45 | 52.34434 | -1.01828 | 18073 ft | 441 kts | 333° |
| 2026-05-04 12:45 | 52.37194 | -1.04045 | 18075 ft | 442 kts | 333° |
| 2026-05-04 12:45 | 52.39959 | -1.06267 | 18071 ft | 442 kts | 333° |
| 2026-05-04 12:46 | 52.42719 | -1.08492 | 18057 ft | 442 kts | 333° |
| 2026-05-04 12:46 | 52.45482 | -1.10720 | 18055 ft | 442 kts | 333° |
| 2026-05-04 12:46 | 52.48242 | -1.12948 | 18052 ft | 442 kts | 333° |
| 2026-05-04 12:46 | 52.51007 | -1.15187 | 18042 ft | 447 kts | 333° |
| 2026-05-04 12:47 | 52.53818 | -1.17470 | 18041 ft | 452 kts | 333° |
| 2026-05-04 12:47 | 52.56641 | -1.19764 | 18036 ft | 453 kts | 333° |
| 2026-05-04 12:47 | 52.59434 | -1.22034 | 18033 ft | 453 kts | 333° |
| 2026-05-04 12:47 | 52.62269 | -1.24340 | 18032 ft | 453 kts | 333° |
| 2026-05-04 12:48 | 52.65095 | -1.26643 | 18029 ft | 453 kts | 333° |
| 2026-05-04 12:48 | 52.67929 | -1.28955 | 18030 ft | 453 kts | 333° |
| 2026-05-04 12:48 | 52.70720 | -1.31359 | 18027 ft | 452 kts | 328° |
| 2026-05-04 12:48 | 52.73400 | -1.34081 | 18085 ft | 452 kts | 327° |
| 2026-05-04 12:49 | 52.76076 | -1.36818 | 18085 ft | 452 kts | 327° |
| 2026-05-04 12:49 | 52.78752 | -1.39562 | 18088 ft | 452 kts | 327° |
| 2026-05-04 12:49 | 52.81389 | -1.42267 | 18089 ft | 452 kts | 327° |
| 2026-05-04 12:49 | 52.84061 | -1.45011 | 18083 ft | 451 kts | 327° |
| 2026-05-04 12:50 | 52.86722 | -1.47742 | 17965 ft | 445 kts | 327° |
| 2026-05-04 12:50 | 52.89325 | -1.50412 | 17633 ft | 439 kts | 327° |
| 2026-05-04 12:50 | 52.91933 | -1.53090 | 17304 ft | 440 kts | 327° |
| 2026-05-04 12:50 | 52.94536 | -1.55764 | 16752 ft | 437 kts | 327° |
| 2026-05-04 12:51 | 52.97104 | -1.58406 | 16158 ft | 433 kts | 327° |
| 2026-05-04 12:51 | 52.99543 | -1.61286 | 15578 ft | 427 kts | 316° |
| 2026-05-04 12:51 | 53.01634 | -1.64771 | 15015 ft | 426 kts | 313° |
| 2026-05-04 12:51 | 53.03663 | -1.68217 | 14372 ft | 420 kts | 313° |
| 2026-05-04 12:52 | 53.05700 | -1.71682 | 13699 ft | 416 kts | 313° |
| 2026-05-04 12:52 | 53.07713 | -1.75115 | 12981 ft | 412 kts | 313° |
| 2026-05-04 12:52 | 53.09703 | -1.78519 | 12275 ft | 408 kts | 313° |
| 2026-05-04 12:52 | 53.11667 | -1.81889 | 11557 ft | 403 kts | 313° |
| 2026-05-04 12:53 | 53.13608 | -1.85228 | 10882 ft | 399 kts | 313° |
| 2026-05-04 12:53 | 53.14882 | -1.87422 | 10449 ft | 396 kts | 313° |
| 2026-05-04 12:53 | 53.16793 | -1.90718 | 9777 ft | 392 kts | 313° |
| 2026-05-04 12:53 | 53.19270 | -1.94987 | 8831 ft | 374 kts | 313° |
| 2026-05-04 12:54 | 53.20481 | -1.97074 | 8366 ft | 368 kts | 313° |
| 2026-05-04 12:54 | 53.22228 | -2.00173 | 7675 ft | 364 kts | 308° |
| 2026-05-04 12:54 | 53.23401 | -2.03749 | 7009 ft | 349 kts | 287° |
| 2026-05-04 12:54 | 53.23710 | -2.07637 | 6345 ft | 331 kts | 268° |
| 2026-05-04 12:55 | 53.23588 | -2.11413 | 5641 ft | 319 kts | 266° |
| 2026-05-04 12:55 | 53.23455 | -2.15051 | 5038 ft | 307 kts | 266° |
| 2026-05-04 12:55 | 53.23325 | -2.18495 | 4753 ft | 287 kts | 266° |
| 2026-05-04 12:55 | 53.23202 | -2.21715 | 4513 ft | 268 kts | 266° |
| 2026-05-04 12:56 | 53.23086 | -2.24728 | 4324 ft | 253 kts | 266° |
| 2026-05-04 12:56 | 53.22974 | -2.27629 | 4118 ft | 248 kts | 266° |
| 2026-05-04 12:56 | 53.22878 | -2.30440 | 3916 ft | 244 kts | 270° |
| 2026-05-04 12:56 | 53.23018 | -2.33350 | 3697 ft | 257 kts | 278° |
| 2026-05-04 12:57 | 53.23148 | -2.36342 | 3483 ft | 257 kts | 270° |
| 2026-05-04 12:57 | 53.23144 | -2.39244 | 3227 ft | 244 kts | 269° |
| 2026-05-04 12:57 | 53.23126 | -2.42009 | 2934 ft | 231 kts | 269° |
| 2026-05-04 12:57 | 53.23179 | -2.44581 | 2644 ft | 215 kts | 284° |
| 2026-05-04 12:58 | 53.23896 | -2.46607 | 2352 ft | 199 kts | 325° |
| 2026-05-04 12:58 | 53.25131 | -2.47103 | 2105 ft | 180 kts | 15° |
| 2026-05-04 12:58 | 53.26040 | -2.45899 | 2025 ft | 168 kts | 58° |
| 2026-05-04 12:58 | 53.26706 | -2.44324 | 2016 ft | 166 kts | 50° |
| 2026-05-04 12:59 | 53.27453 | -2.42853 | 1960 ft | 166 kts | 50° |
| 2026-05-04 12:59 | 53.28177 | -2.41392 | 1816 ft | 156 kts | 51° |
| 2026-05-04 12:59 | 53.28838 | -2.40044 | 1617 ft | 145 kts | 51° |
| 2026-05-04 12:59 | 53.29461 | -2.38765 | 1427 ft | 142 kts | 51° |
| 2026-05-04 13:00 | 53.30080 | -2.37494 | 1232 ft | 140 kts | 51° |
| 2026-05-04 13:00 | 53.30693 | -2.36231 | 1032 ft | 139 kts | 51° |
| 2026-05-04 13:00 | 53.31304 | -2.34973 | 835 ft | 139 kts | 51° |
| 2026-05-04 13:00 | 53.31909 | -2.33724 | 643 ft | 138 kts | 51° |
| 2026-05-04 13:01 | 53.32514 | -2.32478 | 461 ft | 137 kts | 50° |
| 2026-05-04 13:01 | 53.33119 | -2.31239 | 299 ft | 137 kts | 50° |
| 2026-05-04 13:01 | 53.33691 | -2.30050 | 238 ft | 120 kts | 50° |
| 2026-05-04 13:01 | 53.34092 | -2.29217 | 233 ft | 51 kts | 51° |
| 2026-05-04 13:02 | 53.34243 | -2.28906 | 232 ft | 35 kts | 51° |
| 2026-05-04 13:02 | 53.34398 | -2.28628 | 230 ft | 29 kts | 34° |
| 2026-05-04 13:02 | 53.34565 | -2.28495 | 232 ft | 26 kts | 21° |
| 2026-05-04 13:02 | 53.34725 | -2.28371 | 233 ft | 22 kts | 43° |
| 2026-05-04 13:03 | 53.34823 | -2.28169 | 233 ft | 23 kts | 51° |
| 2026-05-04 13:03 | 53.34926 | -2.27954 | 233 ft | 23 kts | 54° |
| 2026-05-04 13:03 | 53.35027 | -2.27733 | 233 ft | 25 kts | 50° |
| 2026-05-04 13:03 | 53.35139 | -2.27509 | 233 ft | 26 kts | 50° |
| 2026-05-04 13:04 | 53.35250 | -2.27286 | 233 ft | 23 kts | 52° |
| 2026-05-04 13:04 | 53.35366 | -2.27197 | 234 ft | 18 kts | 339° |
| 2026-05-04 13:04 | 53.35465 | -2.27312 | 240 ft | 16 kts | 321° |
| 2026-05-04 13:04 | 53.35568 | -2.27451 | 233 ft | 22 kts | 321° |
| 2026-05-04 13:05 | 53.35638 | -2.27545 | 233 ft | 0 kts | 322° |
| 2026-05-04 13:05 | 53.35639 | -2.27547 | 233 ft | 2 kts | 322° |
| 2026-05-04 13:05 | 53.35672 | -2.27591 | 233 ft | 8 kts | 321° |
| 2026-05-04 13:06 | 53.35718 | -2.27635 | 233 ft | 8 kts | 336° |
| 2026-05-04 13:06 | 53.35759 | -2.27657 | 233 ft | 4 kts | 343° |
| 2026-05-04 13:06 | 53.35780 | -2.27674 | 234 ft | 4 kts | 327° |
| 2026-05-04 13:06 | 53.35806 | -2.27713 | 233 ft | 6 kts | 311° |
| 2026-05-04 13:07 | 53.35841 | -2.27779 | 233 ft | 9 kts | 311° |
| 2026-05-04 13:07 | 53.35896 | -2.27850 | 233 ft | 11 kts | 346° |
| 2026-05-04 13:07 | 53.35957 | -2.27851 | 233 ft | 7 kts | 346° |
| 2026-05-04 13:07 | 53.36000 | -2.27909 | 233 ft | 9 kts | 313° |
| 2026-05-04 13:08 | 53.36060 | -2.27894 | 233 ft | 11 kts | 36° |
| 2026-05-04 13:08 | 53.36124 | -2.27941 | 233 ft | 12 kts | 312° |
| 2026-05-04 13:08 | 53.36189 | -2.28053 | 233 ft | 15 kts | 315° |
| 2026-05-04 13:08 | 53.36269 | -2.28187 | 233 ft | 18 kts | 315° |
| 2026-05-04 13:09 | 53.36363 | -2.28345 | 233 ft | 21 kts | 315° |
| 2026-05-04 13:09 | 53.36458 | -2.28538 | 233 ft | 22 kts | 315° |
| 2026-05-04 13:09 | 53.36566 | -2.28722 | 233 ft | 18 kts | 309° |
| 2026-05-04 13:09 | 53.36604 | -2.28850 | 234 ft | 12 kts | 313° |
| 2026-05-04 13:10 | 53.36665 | -2.28907 | 233 ft | 10 kts | 332° |
| 2026-05-04 13:10 | 53.36724 | -2.29005 | 233 ft | 14 kts | 314° |
| 2026-05-04 13:10 | 53.36810 | -2.29021 | 235 ft | 14 kts | 24° |
| 2026-05-04 13:10 | 53.36890 | -2.28902 | 233 ft | 17 kts | 45° |
| 2026-05-04 13:11 | 53.36947 | -2.28804 | 233 ft | 4 kts | 64° |
| 2026-05-04 13:11 | 53.36936 | -2.28769 | 233 ft | 2 kts | 131° |
| 2026-05-04 13:11 | 53.36927 | -2.28753 | 234 ft | 1 kts | 136° |
| 2026-05-04 13:11 | 53.36921 | -2.28742 | 233 ft | 0 kts | 135° |